sensor_id;sensor_type;location;lat;lon;timestamp;pressure;altitude;pressure_sealevel;temperature;humidity
36514;BME280;74739;46.796;9.824;2024-02-26T00:02:03;83102.02;;;-3.44;56.32
36514;BME280;74739;46.796;9.824;2024-02-26T00:04:30;83106.61;;;-3.57;54.90
36514;BME280;74739;46.796;9.824;2024-02-26T00:06:57;83107.76;;;-3.11;54.64
36514;BME280;74739;46.796;9.824;2024-02-26T00:09:24;83108.33;;;-4.41;56.64
36514;BME280;74739;46.796;9.824;2024-02-26T00:11:51;83107.58;;;-4.34;56.83
36514;BME280;74739;46.796;9.824;2024-02-26T00:14:18;83104.95;;;-3.86;56.93
36514;BME280;74739;46.796;9.824;2024-02-26T00:16:45;83105.17;;;-4.54;58.96
36514;BME280;74739;46.796;9.824;2024-02-26T00:19:12;83104.05;;;-4.39;58.36
36514;BME280;74739;46.796;9.824;2024-02-26T00:21:40;83116.28;;;-4.74;59.04
36514;BME280;74739;46.796;9.824;2024-02-26T00:24:07;83105.21;;;-4.36;58.76
36514;BME280;74739;46.796;9.824;2024-02-26T00:26:34;83100.45;;;-4.47;57.53
36514;BME280;74739;46.796;9.824;2024-02-26T00:29:01;83098.45;;;-3.49;56.50
36514;BME280;74739;46.796;9.824;2024-02-26T00:31:28;83098.60;;;-3.73;55.95
36514;BME280;74739;46.796;9.824;2024-02-26T00:33:55;83103.87;;;-5.17;60.23
36514;BME280;74739;46.796;9.824;2024-02-26T00:36:22;83103.66;;;-6.09;63.85
36514;BME280;74739;46.796;9.824;2024-02-26T00:38:49;83095.96;;;-4.77;60.43
36514;BME280;74739;46.796;9.824;2024-02-26T00:41:17;83090.40;;;-3.46;56.71
36514;BME280;74739;46.796;9.824;2024-02-26T00:43:44;83087.70;;;-3.79;56.50
36514;BME280;74739;46.796;9.824;2024-02-26T00:46:11;83085.49;;;-4.18;57.31
36514;BME280;74739;46.796;9.824;2024-02-26T00:48:38;83078.39;;;-3.97;57.66
36514;BME280;74739;46.796;9.824;2024-02-26T00:51:05;83075.64;;;-3.96;57.06
36514;BME280;74739;46.796;9.824;2024-02-26T00:53:32;83072.92;;;-3.80;55.61
36514;BME280;74739;46.796;9.824;2024-02-26T00:55:59;83071.65;;;-3.88;55.93
36514;BME280;74739;46.796;9.824;2024-02-26T00:58:27;83070.92;;;-4.52;58.26
36514;BME280;74739;46.796;9.824;2024-02-26T01:00:54;83068.10;;;-5.65;61.84
36514;BME280;74739;46.796;9.824;2024-02-26T01:03:21;83065.92;;;-5.16;61.29
36514;BME280;74739;46.796;9.824;2024-02-26T01:05:49;83065.70;;;-4.51;58.97
36514;BME280;74739;46.796;9.824;2024-02-26T01:08:22;83060.90;;;-3.96;57.67
36514;BME280;74739;46.796;9.824;2024-02-26T01:10:50;83057.14;;;-4.40;58.65
36514;BME280;74739;46.796;9.824;2024-02-26T01:13:18;83057.42;;;-4.70;60.02
36514;BME280;74739;46.796;9.824;2024-02-26T01:15:47;83054.05;;;-4.63;59.77
36514;BME280;74739;46.796;9.824;2024-02-26T01:18:15;83051.17;;;-3.93;57.83
36514;BME280;74739;46.796;9.824;2024-02-26T01:20:43;83048.18;;;-3.16;55.88
36514;BME280;74739;46.796;9.824;2024-02-26T01:23:11;83047.98;;;-2.64;54.14
36514;BME280;74739;46.796;9.824;2024-02-26T01:25:39;83049.06;;;-2.66;54.46
36514;BME280;74739;46.796;9.824;2024-02-26T01:28:08;83044.75;;;-3.54;55.60
36514;BME280;74739;46.796;9.824;2024-02-26T01:30:36;83044.41;;;-5.18;59.59
36514;BME280;74739;46.796;9.824;2024-02-26T01:33:05;83045.19;;;-5.47;61.50
36514;BME280;74739;46.796;9.824;2024-02-26T01:35:33;83039.48;;;-5.04;61.56
36514;BME280;74739;46.796;9.824;2024-02-26T01:38:01;83032.10;;;-4.86;61.23
36514;BME280;74739;46.796;9.824;2024-02-26T01:40:29;83029.95;;;-4.00;57.53
36514;BME280;74739;46.796;9.824;2024-02-26T01:43:02;83027.43;;;-4.79;59.18
36514;BME280;74739;46.796;9.824;2024-02-26T01:45:31;83034.47;;;-4.18;58.79
36514;BME280;74739;46.796;9.824;2024-02-26T01:47:59;83032.16;;;-4.25;59.24
36514;BME280;74739;46.796;9.824;2024-02-26T01:50:28;83032.35;;;-3.89;57.23
36514;BME280;74739;46.796;9.824;2024-02-26T01:52:56;83031.36;;;-3.08;56.01
36514;BME280;74739;46.796;9.824;2024-02-26T01:55:26;83025.06;;;-2.35;53.14
36514;BME280;74739;46.796;9.824;2024-02-26T01:57:55;83031.13;;;-3.00;53.93
36514;BME280;74739;46.796;9.824;2024-02-26T02:00:25;83028.26;;;-3.61;55.78
36514;BME280;74739;46.796;9.824;2024-02-26T02:02:53;83033.06;;;-4.44;59.32
36514;BME280;74739;46.796;9.824;2024-02-26T02:05:22;83025.46;;;-3.76;57.44
36514;BME280;74739;46.796;9.824;2024-02-26T02:07:51;83024.60;;;-3.31;55.27
36514;BME280;74739;46.796;9.824;2024-02-26T02:10:20;83022.53;;;-4.06;57.61
36514;BME280;74739;46.796;9.824;2024-02-26T02:12:48;83026.08;;;-4.65;59.44
36514;BME280;74739;46.796;9.824;2024-02-26T02:15:18;83022.53;;;-4.91;61.57
36514;BME280;74739;46.796;9.824;2024-02-26T02:17:45;83023.77;;;-5.11;62.05
36514;BME280;74739;46.796;9.824;2024-02-26T02:20:16;83028.38;;;-6.10;65.89
36514;BME280;74739;46.796;9.824;2024-02-26T02:22:45;83026.53;;;-5.59;64.78
36514;BME280;74739;46.796;9.824;2024-02-26T02:25:14;83013.63;;;-4.84;60.28
36514;BME280;74739;46.796;9.824;2024-02-26T02:27:43;83016.77;;;-4.59;59.09
36514;BME280;74739;46.796;9.824;2024-02-26T02:30:11;83014.13;;;-5.08;60.89
36514;BME280;74739;46.796;9.824;2024-02-26T02:32:40;83006.76;;;-5.65;64.06
36514;BME280;74739;46.796;9.824;2024-02-26T02:35:08;83011.84;;;-5.26;62.28
36514;BME280;74739;46.796;9.824;2024-02-26T02:37:36;83008.07;;;-5.04;61.02
36514;BME280;74739;46.796;9.824;2024-02-26T02:40:04;83009.37;;;-5.79;63.26
36514;BME280;74739;46.796;9.824;2024-02-26T02:42:32;83014.52;;;-6.10;65.66
36514;BME280;74739;46.796;9.824;2024-02-26T02:45:00;83011.89;;;-5.93;65.77
36514;BME280;74739;46.796;9.824;2024-02-26T02:47:28;83007.66;;;-6.34;67.58
36514;BME280;74739;46.796;9.824;2024-02-26T02:49:55;83002.48;;;-5.97;65.72
36514;BME280;74739;46.796;9.824;2024-02-26T02:52:23;82995.05;;;-5.11;61.93
36514;BME280;74739;46.796;9.824;2024-02-26T02:54:50;82995.30;;;-5.16;62.16
36514;BME280;74739;46.796;9.824;2024-02-26T02:57:18;82998.07;;;-6.04;63.45
36514;BME280;74739;46.796;9.824;2024-02-26T02:59:46;82989.59;;;-6.13;64.13
36514;BME280;74739;46.796;9.824;2024-02-26T03:02:13;82986.56;;;-5.22;62.07
36514;BME280;74739;46.796;9.824;2024-02-26T03:04:40;82987.70;;;-4.73;59.55
36514;BME280;74739;46.796;9.824;2024-02-26T03:07:07;82981.21;;;-4.28;58.65
36514;BME280;74739;46.796;9.824;2024-02-26T03:09:34;82973.01;;;-3.74;56.79
36514;BME280;74739;46.796;9.824;2024-02-26T03:12:01;82969.84;;;-4.62;59.28
36514;BME280;74739;46.796;9.824;2024-02-26T03:14:28;82972.46;;;-5.31;60.53
36514;BME280;74739;46.796;9.824;2024-02-26T03:16:55;82973.62;;;-4.52;59.60
36514;BME280;74739;46.796;9.824;2024-02-26T03:19:22;82977.71;;;-6.14;62.54
36514;BME280;74739;46.796;9.824;2024-02-26T03:21:49;82974.12;;;-6.27;63.41
36514;BME280;74739;46.796;9.824;2024-02-26T03:24:17;82962.55;;;-4.28;58.68
36514;BME280;74739;46.796;9.824;2024-02-26T03:26:43;82960.54;;;-5.05;61.08
36514;BME280;74739;46.796;9.824;2024-02-26T03:29:10;82958.20;;;-4.75;60.91
36514;BME280;74739;46.796;9.824;2024-02-26T03:31:37;82955.02;;;-5.06;61.16
36514;BME280;74739;46.796;9.824;2024-02-26T03:34:04;82959.47;;;-5.25;60.70
36514;BME280;74739;46.796;9.824;2024-02-26T03:36:31;82966.64;;;-6.43;65.47
36514;BME280;74739;46.796;9.824;2024-02-26T03:38:58;82968.04;;;-6.56;67.38
36514;BME280;74739;46.796;9.824;2024-02-26T03:41:25;82961.16;;;-5.91;65.30
36514;BME280;74739;46.796;9.824;2024-02-26T03:43:52;82949.98;;;-4.44;60.08
36514;BME280;74739;46.796;9.824;2024-02-26T03:46:19;82944.90;;;-4.11;57.55
36514;BME280;74739;46.796;9.824;2024-02-26T03:48:46;82953.27;;;-6.34;64.13
36514;BME280;74739;46.796;9.824;2024-02-26T03:51:13;82947.99;;;-5.66;63.76
36514;BME280;74739;46.796;9.824;2024-02-26T03:53:40;82949.86;;;-4.84;57.57
36514;BME280;74739;46.796;9.824;2024-02-26T03:56:08;82952.03;;;-6.98;63.96
36514;BME280;74739;46.796;9.824;2024-02-26T03:58:34;82955.65;;;-5.23;60.24
36514;BME280;74739;46.796;9.824;2024-02-26T04:01:01;82953.41;;;-4.07;56.85
36514;BME280;74739;46.796;9.824;2024-02-26T04:03:28;82954.55;;;-4.95;58.45
36514;BME280;74739;46.796;9.824;2024-02-26T04:05:55;82954.54;;;-4.73;58.46
36514;BME280;74739;46.796;9.824;2024-02-26T04:08:23;82949.76;;;-4.47;57.87
36514;BME280;74739;46.796;9.824;2024-02-26T04:10:50;82946.51;;;-4.92;59.04
36514;BME280;74739;46.796;9.824;2024-02-26T04:13:18;82951.07;;;-5.59;60.25
36514;BME280;74739;46.796;9.824;2024-02-26T04:15:45;82952.37;;;-5.60;60.42
36514;BME280;74739;46.796;9.824;2024-02-26T04:18:12;82950.82;;;-4.42;57.51
36514;BME280;74739;46.796;9.824;2024-02-26T04:20:39;82955.77;;;-3.24;54.75
36514;BME280;74739;46.796;9.824;2024-02-26T04:23:06;82959.32;;;-4.33;56.22
36514;BME280;74739;46.796;9.824;2024-02-26T04:25:33;82964.93;;;-5.67;61.00
36514;BME280;74739;46.796;9.824;2024-02-26T04:28:00;82971.14;;;-6.75;66.32
36514;BME280;74739;46.796;9.824;2024-02-26T04:30:27;82975.49;;;-7.14;68.52
36514;BME280;74739;46.796;9.824;2024-02-26T04:32:54;82970.35;;;-6.41;68.09
36514;BME280;74739;46.796;9.824;2024-02-26T04:35:21;82956.77;;;-5.05;61.65
36514;BME280;74739;46.796;9.824;2024-02-26T04:37:48;82960.32;;;-4.34;57.66
36514;BME280;74739;46.796;9.824;2024-02-26T04:40:15;82960.88;;;-5.33;60.33
36514;BME280;74739;46.796;9.824;2024-02-26T04:42:42;82961.59;;;-5.36;61.70
36514;BME280;74739;46.796;9.824;2024-02-26T04:45:09;82965.97;;;-5.22;61.59
36514;BME280;74739;46.796;9.824;2024-02-26T04:47:36;82969.18;;;-5.91;62.39
36514;BME280;74739;46.796;9.824;2024-02-26T04:50:04;82966.19;;;-4.58;58.25
36514;BME280;74739;46.796;9.824;2024-02-26T04:52:31;82960.91;;;-4.60;57.55
36514;BME280;74739;46.796;9.824;2024-02-26T04:54:58;82959.03;;;-4.06;56.32
36514;BME280;74739;46.796;9.824;2024-02-26T04:57:25;82968.28;;;-6.32;61.99
36514;BME280;74739;46.796;9.824;2024-02-26T04:59:52;82968.38;;;-6.70;63.44
36514;BME280;74739;46.796;9.824;2024-02-26T05:02:19;82962.97;;;-5.38;59.16
36514;BME280;74739;46.796;9.824;2024-02-26T05:04:46;82962.25;;;-4.99;57.53
36514;BME280;74739;46.796;9.824;2024-02-26T05:07:13;82961.30;;;-3.87;55.16
36514;BME280;74739;46.796;9.824;2024-02-26T05:09:40;82966.33;;;-4.26;55.71
36514;BME280;74739;46.796;9.824;2024-02-26T05:12:07;82968.11;;;-4.58;56.65
36514;BME280;74739;46.796;9.824;2024-02-26T05:14:34;82966.56;;;-4.84;56.73
36514;BME280;74739;46.796;9.824;2024-02-26T05:17:01;82965.77;;;-3.78;55.28
36514;BME280;74739;46.796;9.824;2024-02-26T05:19:28;82970.23;;;-4.39;57.27
36514;BME280;74739;46.796;9.824;2024-02-26T05:21:55;82971.73;;;-4.80;58.50
36514;BME280;74739;46.796;9.824;2024-02-26T05:24:22;82965.20;;;-4.36;57.71
36514;BME280;74739;46.796;9.824;2024-02-26T05:26:49;82968.22;;;-3.71;55.51
36514;BME280;74739;46.796;9.824;2024-02-26T05:29:16;82963.41;;;-3.93;56.28
36514;BME280;74739;46.796;9.824;2024-02-26T05:31:44;82963.92;;;-4.98;59.54
36514;BME280;74739;46.796;9.824;2024-02-26T05:34:11;82965.95;;;-6.31;64.54
36514;BME280;74739;46.796;9.824;2024-02-26T05:36:38;82967.09;;;-6.80;67.49
36514;BME280;74739;46.796;9.824;2024-02-26T05:39:05;82966.03;;;-6.65;66.49
36514;BME280;74739;46.796;9.824;2024-02-26T05:41:32;82966.68;;;-6.18;64.02
36514;BME280;74739;46.796;9.824;2024-02-26T05:43:59;82962.03;;;-5.25;61.70
36514;BME280;74739;46.796;9.824;2024-02-26T05:46:26;82966.99;;;-5.42;62.20
36514;BME280;74739;46.796;9.824;2024-02-26T05:48:53;82973.78;;;-5.56;62.58
36514;BME280;74739;46.796;9.824;2024-02-26T05:51:20;82975.33;;;-6.54;64.76
36514;BME280;74739;46.796;9.824;2024-02-26T05:53:47;82976.95;;;-5.81;63.74
36514;BME280;74739;46.796;9.824;2024-02-26T05:56:14;82973.31;;;-5.36;62.83
36514;BME280;74739;46.796;9.824;2024-02-26T05:58:41;82970.84;;;-4.92;60.11
36514;BME280;74739;46.796;9.824;2024-02-26T06:01:09;82977.70;;;-6.04;65.60
36514;BME280;74739;46.796;9.824;2024-02-26T06:03:36;82973.58;;;-5.27;63.53
36514;BME280;74739;46.796;9.824;2024-02-26T06:06:04;82972.01;;;-4.54;59.55
36514;BME280;74739;46.796;9.824;2024-02-26T06:08:31;82964.08;;;-3.89;56.69
36514;BME280;74739;46.796;9.824;2024-02-26T06:10:58;82965.36;;;-5.14;62.07
36514;BME280;74739;46.796;9.824;2024-02-26T06:13:25;82972.24;;;-6.27;61.98
36514;BME280;74739;46.796;9.824;2024-02-26T06:15:52;82980.43;;;-5.82;60.85
36514;BME280;74739;46.796;9.824;2024-02-26T06:18:19;82986.82;;;-7.00;64.39
36514;BME280;74739;46.796;9.824;2024-02-26T06:20:46;82980.78;;;-5.79;63.05
36514;BME280;74739;46.796;9.824;2024-02-26T06:23:13;82977.77;;;-5.22;59.97
36514;BME280;74739;46.796;9.824;2024-02-26T06:25:40;82982.67;;;-5.10;58.92
36514;BME280;74739;46.796;9.824;2024-02-26T06:28:07;83004.93;;;-7.49;67.07
36514;BME280;74739;46.796;9.824;2024-02-26T06:30:34;83003.49;;;-5.45;63.72
36514;BME280;74739;46.796;9.824;2024-02-26T06:33:01;82997.28;;;-4.47;58.92
36514;BME280;74739;46.796;9.824;2024-02-26T06:35:28;82996.24;;;-3.61;55.93
36514;BME280;74739;46.796;9.824;2024-02-26T06:37:55;82998.88;;;-4.59;56.97
36514;BME280;74739;46.796;9.824;2024-02-26T06:40:22;82998.16;;;-4.96;59.88
36514;BME280;74739;46.796;9.824;2024-02-26T06:42:50;82995.21;;;-3.22;54.81
36514;BME280;74739;46.796;9.824;2024-02-26T06:45:18;82997.71;;;-5.26;57.65
36514;BME280;74739;46.796;9.824;2024-02-26T06:47:45;82995.95;;;-4.02;57.14
36514;BME280;74739;46.796;9.824;2024-02-26T06:50:12;83000.99;;;-5.40;61.31
36514;BME280;74739;46.796;9.824;2024-02-26T06:52:46;83008.17;;;-6.92;64.89
36514;BME280;74739;46.796;9.824;2024-02-26T06:55:13;83013.18;;;-6.70;63.49
36514;BME280;74739;46.796;9.824;2024-02-26T06:57:45;83012.52;;;-6.67;63.81
36514;BME280;74739;46.796;9.824;2024-02-26T07:00:13;83008.53;;;-5.34;60.60
36514;BME280;74739;46.796;9.824;2024-02-26T07:02:47;83014.12;;;-5.92;62.05
36514;BME280;74739;46.796;9.824;2024-02-26T07:05:14;83010.08;;;-3.55;55.53
36514;BME280;74739;46.796;9.824;2024-02-26T07:07:42;83001.91;;;-1.91;52.19
36514;BME280;74739;46.796;9.824;2024-02-26T07:10:09;82999.29;;;-1.93;50.59
36514;BME280;74739;46.796;9.824;2024-02-26T07:12:37;83003.11;;;-4.10;55.01
36514;BME280;74739;46.796;9.824;2024-02-26T07:15:04;83002.75;;;-4.90;57.37
36514;BME280;74739;46.796;9.824;2024-02-26T07:17:32;83003.20;;;-6.27;64.31
36514;BME280;74739;46.796;9.824;2024-02-26T07:19:58;83001.34;;;-6.65;65.32
36514;BME280;74739;46.796;9.824;2024-02-26T07:22:26;83001.01;;;-6.67;66.50
36514;BME280;74739;46.796;9.824;2024-02-26T07:24:54;82997.04;;;-6.37;66.07
36514;BME280;74739;46.796;9.824;2024-02-26T07:27:21;82992.17;;;-5.96;64.57
36514;BME280;74739;46.796;9.824;2024-02-26T07:29:48;82999.49;;;-6.41;63.45
36514;BME280;74739;46.796;9.824;2024-02-26T07:32:14;83002.12;;;-6.60;65.87
36514;BME280;74739;46.796;9.824;2024-02-26T07:34:42;82995.25;;;-4.79;62.53
36514;BME280;74739;46.796;9.824;2024-02-26T07:37:09;82992.94;;;-3.00;55.98
36514;BME280;74739;46.796;9.824;2024-02-26T07:39:36;82995.14;;;-3.78;56.46
36514;BME280;74739;46.796;9.824;2024-02-26T07:42:06;83008.88;;;-6.41;64.09
36514;BME280;74739;46.796;9.824;2024-02-26T07:44:33;83014.76;;;-6.97;68.60
36514;BME280;74739;46.796;9.824;2024-02-26T07:47:00;83011.35;;;-5.79;66.34
36514;BME280;74739;46.796;9.824;2024-02-26T07:49:27;83002.83;;;-5.43;62.64
36514;BME280;74739;46.796;9.824;2024-02-26T07:51:54;83006.96;;;-5.00;60.99
36514;BME280;74739;46.796;9.824;2024-02-26T07:54:21;83006.91;;;-5.20;60.31
36514;BME280;74739;46.796;9.824;2024-02-26T07:56:48;83011.59;;;-4.99;60.51
36514;BME280;74739;46.796;9.824;2024-02-26T07:59:15;83004.65;;;-2.48;55.11
36514;BME280;74739;46.796;9.824;2024-02-26T08:01:42;82999.32;;;-3.69;57.95
36514;BME280;74739;46.796;9.824;2024-02-26T08:04:09;83002.46;;;-5.04;59.81
36514;BME280;74739;46.796;9.824;2024-02-26T08:06:36;82997.91;;;-2.68;54.58
36514;BME280;74739;46.796;9.824;2024-02-26T08:09:03;83003.60;;;-4.83;60.79
36514;BME280;74739;46.796;9.824;2024-02-26T08:11:35;83004.32;;;-3.81;59.35
36514;BME280;74739;46.796;9.824;2024-02-26T08:14:02;83005.41;;;-4.49;59.18
36514;BME280;74739;46.796;9.824;2024-02-26T08:16:34;83004.91;;;-5.44;61.43
36514;BME280;74739;46.796;9.824;2024-02-26T08:19:00;83002.77;;;-5.14;61.01
36514;BME280;74739;46.796;9.824;2024-02-26T08:21:27;82996.56;;;-4.11;58.39
36514;BME280;74739;46.796;9.824;2024-02-26T08:23:54;82997.41;;;-2.84;55.64
36514;BME280;74739;46.796;9.824;2024-02-26T08:26:22;82997.83;;;-5.32;61.99
36514;BME280;74739;46.796;9.824;2024-02-26T08:28:48;82998.31;;;-5.51;63.93
36514;BME280;74739;46.796;9.824;2024-02-26T08:31:15;82998.52;;;-4.76;63.11
36514;BME280;74739;46.796;9.824;2024-02-26T08:33:42;82995.31;;;-2.62;56.69
36514;BME280;74739;46.796;9.824;2024-02-26T08:36:11;82997.49;;;-1.92;53.46
36514;BME280;74739;46.796;9.824;2024-02-26T08:38:38;82995.86;;;-4.29;58.92
36514;BME280;74739;46.796;9.824;2024-02-26T08:41:05;82996.37;;;-2.36;54.85
36514;BME280;74739;46.796;9.824;2024-02-26T08:43:32;82993.79;;;-1.38;52.37
36514;BME280;74739;46.796;9.824;2024-02-26T08:45:59;82993.79;;;-3.77;59.69
36514;BME280;74739;46.796;9.824;2024-02-26T08:48:25;82992.05;;;-3.68;58.70
36514;BME280;74739;46.796;9.824;2024-02-26T08:50:52;82997.27;;;-4.06;60.92
36514;BME280;74739;46.796;9.824;2024-02-26T08:53:20;82999.10;;;-2.92;56.66
36514;BME280;74739;46.796;9.824;2024-02-26T08:55:47;83000.90;;;-0.94;51.45
36514;BME280;74739;46.796;9.824;2024-02-26T08:58:14;82993.06;;;-3.12;53.63
36514;BME280;74739;46.796;9.824;2024-02-26T09:00:41;82970.37;;;-2.21;54.60
36514;BME280;74739;46.796;9.824;2024-02-26T09:03:08;82962.38;;;-2.34;53.03
36514;BME280;74739;46.796;9.824;2024-02-26T09:05:35;82971.60;;;-1.36;53.13
36514;BME280;74739;46.796;9.824;2024-02-26T09:08:01;82977.01;;;-3.38;56.08
36514;BME280;74739;46.796;9.824;2024-02-26T09:10:28;82974.72;;;-3.62;58.41
36514;BME280;74739;46.796;9.824;2024-02-26T09:12:56;82963.93;;;-1.93;53.60
36514;BME280;74739;46.796;9.824;2024-02-26T09:15:24;82974.92;;;-2.63;57.12
36514;BME280;74739;46.796;9.824;2024-02-26T09:17:51;82983.17;;;-4.00;61.65
36514;BME280;74739;46.796;9.824;2024-02-26T09:20:18;82981.66;;;-4.05;60.09
36514;BME280;74739;46.796;9.824;2024-02-26T09:22:45;82976.70;;;-1.57;53.63
36514;BME280;74739;46.796;9.824;2024-02-26T09:25:13;82977.49;;;-2.70;54.63
36514;BME280;74739;46.796;9.824;2024-02-26T09:27:40;82972.70;;;-2.91;55.66
36514;BME280;74739;46.796;9.824;2024-02-26T09:30:08;82968.17;;;-2.99;56.44
36514;BME280;74739;46.796;9.824;2024-02-26T09:32:35;82961.98;;;-1.25;50.42
36514;BME280;74739;46.796;9.824;2024-02-26T09:35:02;82950.40;;;0.87;46.67
36514;BME280;74739;46.796;9.824;2024-02-26T09:37:30;82942.98;;;1.77;43.94
36514;BME280;74739;46.796;9.824;2024-02-26T09:39:57;82945.93;;;3.41;40.95
36514;BME280;74739;46.796;9.824;2024-02-26T09:42:25;82960.53;;;-0.52;50.50
36514;BME280;74739;46.796;9.824;2024-02-26T09:44:54;82970.22;;;-1.98;54.44
36514;BME280;74739;46.796;9.824;2024-02-26T09:47:23;82972.22;;;-1.90;55.35
36514;BME280;74739;46.796;9.824;2024-02-26T09:49:53;82967.35;;;-0.96;50.65
36514;BME280;74739;46.796;9.824;2024-02-26T09:52:24;82963.82;;;1.26;47.65
36514;BME280;74739;46.796;9.824;2024-02-26T09:54:52;82964.80;;;0.96;44.13
36514;BME280;74739;46.796;9.824;2024-02-26T09:57:20;82959.54;;;1.05;40.77
36514;BME280;74739;46.796;9.824;2024-02-26T09:59:48;82958.78;;;-0.05;43.75
36514;BME280;74739;46.796;9.824;2024-02-26T10:02:20;82957.45;;;1.72;41.90
36514;BME280;74739;46.796;9.824;2024-02-26T10:04:48;82960.01;;;0.83;41.39
36514;BME280;74739;46.796;9.824;2024-02-26T10:07:16;82957.64;;;1.86;41.26
36514;BME280;74739;46.796;9.824;2024-02-26T10:09:43;82957.53;;;0.15;44.69
36514;BME280;74739;46.796;9.824;2024-02-26T10:12:11;82964.51;;;-0.88;47.71
36514;BME280;74739;46.796;9.824;2024-02-26T10:14:38;82961.21;;;-1.36;48.76
36514;BME280;74739;46.796;9.824;2024-02-26T10:17:07;82946.75;;;0.32;45.86
36514;BME280;74739;46.796;9.824;2024-02-26T10:19:34;82948.18;;;0.01;42.80
36514;BME280;74739;46.796;9.824;2024-02-26T10:22:01;82956.21;;;0.12;43.62
36514;BME280;74739;46.796;9.824;2024-02-26T10:24:29;82956.62;;;-0.86;47.54
36514;BME280;74739;46.796;9.824;2024-02-26T10:26:57;82960.84;;;-0.81;47.68
36514;BME280;74739;46.796;9.824;2024-02-26T10:29:25;82956.96;;;-1.08;47.68
36514;BME280;74739;46.796;9.824;2024-02-26T10:31:52;82947.62;;;0.65;45.48
36514;BME280;74739;46.796;9.824;2024-02-26T10:34:19;82953.01;;;0.41;45.77
36514;BME280;74739;46.796;9.824;2024-02-26T10:36:46;82954.48;;;-0.21;47.78
36514;BME280;74739;46.796;9.824;2024-02-26T10:39:13;82958.50;;;0.66;46.14
36514;BME280;74739;46.796;9.824;2024-02-26T10:41:41;82967.90;;;-0.60;47.19
36514;BME280;74739;46.796;9.824;2024-02-26T10:44:09;82974.13;;;0.58;44.98
36514;BME280;74739;46.796;9.824;2024-02-26T10:46:36;82971.54;;;-0.10;47.58
36514;BME280;74739;46.796;9.824;2024-02-26T10:49:04;82963.23;;;1.16;43.52
36514;BME280;74739;46.796;9.824;2024-02-26T10:51:32;82957.79;;;2.34;42.09
36514;BME280;74739;46.796;9.824;2024-02-26T10:54:04;82957.68;;;0.59;45.09
36514;BME280;74739;46.796;9.824;2024-02-26T10:56:34;82957.72;;;-0.64;48.59
36514;BME280;74739;46.796;9.824;2024-02-26T10:59:02;82957.22;;;-0.35;48.02
36514;BME280;74739;46.796;9.824;2024-02-26T11:01:29;82954.73;;;-0.21;48.36
36514;BME280;74739;46.796;9.824;2024-02-26T11:03:58;82957.49;;;-0.10;48.67
36514;BME280;74739;46.796;9.824;2024-02-26T11:06:26;82955.93;;;0.45;46.18
36514;BME280;74739;46.796;9.824;2024-02-26T11:08:54;82957.71;;;0.44;47.10
36514;BME280;74739;46.796;9.824;2024-02-26T11:11:21;82957.72;;;1.56;44.69
36514;BME280;74739;46.796;9.824;2024-02-26T11:13:51;82959.44;;;2.17;44.20
36514;BME280;74739;46.796;9.824;2024-02-26T11:16:21;82958.98;;;1.83;44.86
36514;BME280;74739;46.796;9.824;2024-02-26T11:18:49;82957.55;;;1.58;47.76
36514;BME280;74739;46.796;9.824;2024-02-26T11:21:18;82962.28;;;2.16;46.50
36514;BME280;74739;46.796;9.824;2024-02-26T11:23:46;82967.44;;;0.79;48.06
36514;BME280;74739;46.796;9.824;2024-02-26T11:26:15;82965.71;;;1.46;46.88
36514;BME280;74739;46.796;9.824;2024-02-26T11:28:44;82971.56;;;-0.75;51.08
36514;BME280;74739;46.796;9.824;2024-02-26T11:31:13;82966.53;;;1.04;48.37
36514;BME280;74739;46.796;9.824;2024-02-26T11:33:41;82964.56;;;0.32;50.06
36514;BME280;74739;46.796;9.824;2024-02-26T11:36:09;82968.99;;;0.05;51.96
36514;BME280;74739;46.796;9.824;2024-02-26T11:38:36;82965.74;;;1.17;48.64
36514;BME280;74739;46.796;9.824;2024-02-26T11:41:05;82968.44;;;1.42;48.55
36514;BME280;74739;46.796;9.824;2024-02-26T11:44:04;82970.76;;;1.47;48.19
36514;BME280;74739;46.796;9.824;2024-02-26T11:46:32;82968.95;;;0.80;49.08
36514;BME280;74739;46.796;9.824;2024-02-26T11:49:00;82973.89;;;-0.56;51.37
36514;BME280;74739;46.796;9.824;2024-02-26T11:51:33;82973.73;;;0.82;49.97
36514;BME280;74739;46.796;9.824;2024-02-26T11:54:01;82972.84;;;1.53;48.80
36514;BME280;74739;46.796;9.824;2024-02-26T11:56:28;82973.40;;;1.93;46.64
36514;BME280;74739;46.796;9.824;2024-02-26T11:58:58;82975.34;;;1.46;48.27
36514;BME280;74739;46.796;9.824;2024-02-26T12:01:56;82980.64;;;-0.41;52.17
36514;BME280;74739;46.796;9.824;2024-02-26T12:04:26;82985.99;;;-0.63;52.46
36514;BME280;74739;46.796;9.824;2024-02-26T12:06:56;82979.28;;;0.73;48.32
36514;BME280;74739;46.796;9.824;2024-02-26T12:09:32;82977.50;;;1.76;47.39
36514;BME280;74739;46.796;9.824;2024-02-26T12:12:00;82974.43;;;0.99;48.55
36514;BME280;74739;46.796;9.824;2024-02-26T12:14:27;82970.89;;;1.24;46.47
36514;BME280;74739;46.796;9.824;2024-02-26T12:16:55;82970.41;;;0.92;47.60
36514;BME280;74739;46.796;9.824;2024-02-26T12:19:23;82965.74;;;1.32;48.32
36514;BME280;74739;46.796;9.824;2024-02-26T12:21:52;82965.14;;;1.51;46.72
36514;BME280;74739;46.796;9.824;2024-02-26T12:24:19;82963.07;;;0.99;47.52
36514;BME280;74739;46.796;9.824;2024-02-26T12:26:46;82960.84;;;0.85;47.78
36514;BME280;74739;46.796;9.824;2024-02-26T12:29:13;82955.55;;;1.68;47.32
36514;BME280;74739;46.796;9.824;2024-02-26T12:31:48;82950.44;;;1.34;46.58
36514;BME280;74739;46.796;9.824;2024-02-26T12:34:15;82953.39;;;1.06;47.83
36514;BME280;74739;46.796;9.824;2024-02-26T12:36:43;82949.13;;;1.99;45.82
36514;BME280;74739;46.796;9.824;2024-02-26T12:39:09;82952.26;;;0.46;49.14
36514;BME280;74739;46.796;9.824;2024-02-26T12:41:38;82951.66;;;0.79;48.33
36514;BME280;74739;46.796;9.824;2024-02-26T12:44:05;82951.93;;;1.77;46.71
36514;BME280;74739;46.796;9.824;2024-02-26T12:46:34;82955.98;;;2.77;44.13
36514;BME280;74739;46.796;9.824;2024-02-26T12:49:01;82953.35;;;2.44;42.94
36514;BME280;74739;46.796;9.824;2024-02-26T12:51:27;82955.76;;;2.94;42.16
36514;BME280;74739;46.796;9.824;2024-02-26T12:53:56;82954.40;;;2.89;42.59
36514;BME280;74739;46.796;9.824;2024-02-26T12:56:26;82956.91;;;2.55;44.18
36514;BME280;74739;46.796;9.824;2024-02-26T12:58:54;82953.30;;;2.39;44.48
36514;BME280;74739;46.796;9.824;2024-02-26T13:01:23;82953.54;;;2.86;42.81
36514;BME280;74739;46.796;9.824;2024-02-26T13:03:52;82950.19;;;2.02;44.02
36514;BME280;74739;46.796;9.824;2024-02-26T13:06:20;82949.00;;;2.36;42.27